Time;durP1;ratioP1;P1;durP2;ratioP2;P2;SDS_P1;SDS_P2;PMS_P1;PMS_P2;Temp;Humidity;BMP_temperature;BMP_pressure;BME280_temperature;BME280_humidity;BME280_pressure;Samples;Min_cycle;Max_cycle;Signal;HPM_P1;HPM_P2
2021/03/20 00:00:02;;;;;;;9.30;6.13;;;0.10;99.90;;;;;;4987089;28;20774;-65
2021/03/20 00:02:33;;;;;;;8.90;5.07;;;0.10;99.90;;;;;;4987302;28;20644;-65
2021/03/20 00:05:01;;;;;;;10.20;6.50;;;0.10;99.90;;;;;;4995204;28;20862;-66
2021/03/20 00:07:37;;;;;;;;;;;;;;;;;;;;;
2021/03/20 00:10:13;;;;;;;15.70;7.70;;;0.10;99.90;;;;;;4991686;28;20603;-65
2021/03/20 00:12:56;;;;;;;15.50;8.43;;;0.10;99.90;;;;;;4987308;28;20679;-65
2021/03/20 00:15:24;;;;;;;15.33;8.37;;;0.10;99.90;;;;;;4981325;28;20704;-66
2021/03/20 00:17:56;;;;;;;16.67;8.57;;;0.10;99.90;;;;;;4987042;28;20830;-66
2021/03/20 00:20:41;;;;;;;15.87;9.00;;;0.10;99.90;;;;;;4988007;28;20667;-65
2021/03/20 00:23:15;;;;;;;12.43;9.47;;;0.20;99.90;;;;;;4989290;28;20703;-65
2021/03/20 00:25:44;;;;;;;13.40;7.80;;;0.20;99.90;;;;;;4988314;28;20636;-65
2021/03/20 00:28:21;;;;;;;13.33;8.00;;;0.20;99.90;;;;;;4990724;28;20650;-65
2021/03/20 00:30:51;;;;;;;11.10;7.60;;;0.20;99.90;;;;;;4993051;28;20588;-65
2021/03/20 00:33:22;;;;;;;11.57;8.20;;;0.20;99.90;;;;;;4988898;28;20665;-65
2021/03/20 00:36:14;;;;;;;9.70;7.27;;;0.20;99.90;;;;;;4988741;28;20774;-65
2021/03/20 00:38:44;;;;;;;9.53;6.63;;;0.20;99.90;;;;;;4995600;28;20699;-65
2021/03/20 00:41:39;;;;;;;9.70;6.70;;;0.30;99.90;;;;;;4977341;28;20671;-65
2021/03/20 00:44:05;;;;;;;8.70;6.77;;;0.20;99.90;;;;;;4975677;28;20659;-66
2021/03/20 00:46:33;;;;;;;12.53;7.50;;;0.20;99.90;;;;;;4986552;28;21182;-66
2021/03/20 00:49:01;;;;;;;9.97;7.00;;;0.30;99.90;;;;;;4988916;28;21144;-66
2021/03/20 00:51:36;;;;;;;10.17;6.47;;;0.30;99.90;;;;;;4980360;28;20719;-65
2021/03/20 00:54:02;;;;;;;10.70;6.43;;;0.30;99.90;;;;;;4978878;28;20648;-67
2021/03/20 00:56:35;;;;;;;9.83;6.97;;;0.30;99.90;;;;;;4988643;28;20641;-65
2021/03/20 00:59:05;;;;;;;10.93;6.97;;;0.20;99.90;;;;;;4991749;28;20801;-65
2021/03/20 01:01:36;;;;;;;11.47;6.50;;;0.30;99.90;;;;;;4986102;28;20627;-65
2021/03/20 01:04:02;;;;;;;9.70;6.77;;;0.20;99.90;;;;;;4983717;28;20939;-65
2021/03/20 01:06:28;;;;;;;10.63;6.57;;;0.20;99.90;;;;;;4988910;28;20620;-65
2021/03/20 01:08:59;;;;;;;9.53;7.10;;;0.20;99.90;;;;;;4983137;28;20226;-65
2021/03/20 01:11:34;;;;;;;7.37;5.93;;;0.20;99.90;;;;;;4986214;28;20612;-65
2021/03/20 01:14:03;;;;;;;10.03;6.57;;;0.10;99.90;;;;;;4983579;28;20750;-65
2021/03/20 01:16:31;;;;;;;7.83;6.40;;;0.20;99.90;;;;;;4984395;28;21215;-65
2021/03/20 01:19:10;;;;;;;11.83;6.87;;;0.20;99.90;;;;;;4987592;28;20693;-65
2021/03/20 01:21:41;;;;;;;6.83;6.07;;;0.20;99.90;;;;;;4985874;28;21717;-65
2021/03/20 01:24:07;;;;;;;8.90;7.33;;;0.10;99.90;;;;;;4979308;28;21159;-65
2021/03/20 01:26:33;;;;;;;7.13;6.43;;;0.10;99.90;;;;;;4989676;28;20941;-65
2021/03/20 01:29:23;;;;;;;;;;;;;;;;;;;;;
2021/03/20 01:32:01;;;;;;;8.17;6.67;;;0.00;99.90;;;;;;4983649;28;20189;-66
2021/03/20 01:34:41;;;;;;;7.70;6.90;;;0.10;99.90;;;;;;4984942;28;20956;-65
2021/03/20 01:37:09;;;;;;;7.80;6.73;;;0.10;99.90;;;;;;4987259;28;20600;-65
2021/03/20 01:39:45;;;;;;;7.70;6.60;;;0.20;99.90;;;;;;4986462;28;20652;-65
2021/03/20 01:42:11;;;;;;;7.80;6.70;;;0.10;99.90;;;;;;4983666;28;21144;-64
2021/03/20 01:44:41;;;;;;;7.97;6.73;;;0.10;99.90;;;;;;4987940;28;20613;-65
2021/03/20 01:47:16;;;;;;;11.00;6.70;;;0.00;99.90;;;;;;4982022;28;21011;-65
2021/03/20 01:49:50;;;;;;;6.93;6.23;;;0.00;99.90;;;;;;4992014;28;20627;-65
2021/03/20 01:52:30;;;;;;;8.00;6.50;;;0.00;99.90;;;;;;4987489;28;20655;-65
2021/03/20 01:55:12;;;;;;;11.10;6.77;;;0.00;99.90;;;;;;4981460;28;20644;-66
2021/03/20 01:57:54;;;;;;;6.53;6.00;;;0.00;99.90;;;;;;4985362;28;20640;-65
2021/03/20 02:00:44;;;;;;;8.63;6.50;;;0.00;99.90;;;;;;4994689;28;20702;-65
2021/03/20 02:03:13;;;;;;;8.87;6.17;;;0.10;99.90;;;;;;4985367;28;20728;-65
2021/03/20 02:05:46;;;;;;;6.40;5.73;;;0.10;99.90;;;;;;4981765;28;20762;-65
2021/03/20 02:08:24;;;;;;;10.70;6.90;;;0.10;99.90;;;;;;4980454;28;20647;-65
2021/03/20 02:10:55;;;;;;;9.47;6.23;;;0.10;99.90;;;;;;4983115;28;20621;-65
2021/03/20 02:13:41;;;;;;;9.13;6.80;;;0.20;99.90;;;;;;4982254;28;20767;-65
2021/03/20 02:16:18;;;;;;;7.53;6.57;;;0.20;99.90;;;;;;4982304;28;21293;-66
2021/03/20 02:18:49;;;;;;;9.23;7.70;;;0.30;99.90;;;;;;4984907;28;20641;-65
2021/03/20 02:21:56;;;;;;;10.43;7.57;;;0.30;99.90;;;;;;4985144;28;20613;-65
2021/03/20 02:24:40;;;;;;;9.43;7.40;;;0.40;99.90;;;;;;4959248;28;20702;-65
2021/03/20 02:27:37;;;;;;;9.43;8.30;;;0.30;99.90;;;;;;4962386;28;22182;-65
2021/03/20 02:30:14;;;;;;;8.40;7.07;;;0.30;99.90;;;;;;4964602;28;20645;-65
2021/03/20 02:32:47;;;;;;;10.30;7.67;;;0.30;99.90;;;;;;4960533;28;20763;-65
2021/03/20 02:35:48;;;;;;;9.60;6.80;;;0.30;99.90;;;;;;4959256;28;20652;-65
2021/03/20 02:38:55;;;;;;;9.07;6.40;;;0.30;99.90;;;;;;4962877;28;20667;-65
2021/03/20 02:41:46;;;;;;;10.13;6.40;;;0.40;99.90;;;;;;4879910;29;20641;-65
2021/03/20 02:44:39;;;;;;;8.07;6.20;;;0.40;99.90;;;;;;4895134;29;20652;-66
2021/03/20 02:47:09;;;;;;;6.50;5.57;;;0.40;99.90;;;;;;4900104;29;20660;-66
2021/03/20 02:50:04;;;;;;;9.60;6.13;;;0.50;99.90;;;;;;4900454;29;20648;-66
2021/03/20 02:52:46;;;;;;;9.30;6.00;;;0.50;99.90;;;;;;4896876;29;20645;-65
2021/03/20 02:55:19;;;;;;;6.83;5.93;;;0.50;99.90;;;;;;4881793;29;20776;-65
2021/03/20 02:58:00;;;;;;;7.63;5.67;;;0.50;99.90;;;;;;4897176;29;20979;-65
2021/03/20 03:00:37;;;;;;;8.47;5.90;;;0.60;99.90;;;;;;4899746;29;20635;-65
2021/03/20 03:03:05;;;;;;;8.33;5.83;;;0.50;99.90;;;;;;4877752;29;20646;-65
2021/03/20 03:05:53;;;;;;;;;;;;;;;;;;;;;
2021/03/20 03:08:36;;;;;;;6.83;5.60;;;0.60;99.90;;;;;;4881109;29;20654;-66
2021/03/20 03:11:17;;;;;;;8.97;5.57;;;0.60;99.90;;;;;;4886638;28;20760;-65
2021/03/20 03:14:10;;;;;;;8.73;6.20;;;0.60;99.90;;;;;;4975251;28;20761;-65
2021/03/20 03:16:45;;;;;;;6.47;5.67;;;0.70;99.90;;;;;;4971591;28;20626;-65
2021/03/20 03:19:46;;;;;;;6.97;5.57;;;0.80;99.90;;;;;;4975371;28;20660;-65
2021/03/20 03:22:40;;;;;;;6.23;4.80;;;0.70;99.90;;;;;;4973639;28;20651;-65
2021/03/20 03:25:09;;;;;;;5.33;4.80;;;0.70;99.90;;;;;;4980765;28;20613;-65
2021/03/20 03:27:42;;;;;;;7.03;5.20;;;0.70;99.90;;;;;;4986794;28;20641;-65
2021/03/20 03:30:23;;;;;;;6.80;5.07;;;0.70;99.90;;;;;;4986759;28;20692;-65
2021/03/20 03:32:52;;;;;;;7.93;4.90;;;0.70;99.90;;;;;;4983765;28;20755;-64
2021/03/20 03:35:20;;;;;;;5.33;4.70;;;0.70;99.90;;;;;;4986955;28;21322;-65
2021/03/20 03:38:01;;;;;;;7.10;4.57;;;0.80;99.90;;;;;;4989168;28;21099;-65
2021/03/20 03:40:43;;;;;;;6.07;5.37;;;0.80;99.90;;;;;;4978937;28;20633;-65
2021/03/20 03:43:18;;;;;;;7.57;5.40;;;0.80;99.90;;;;;;4985069;28;20729;-65
2021/03/20 03:45:44;;;;;;;4.50;4.00;;;0.80;99.90;;;;;;4982646;28;20655;-65
2021/03/20 03:48:16;;;;;;;6.77;4.60;;;0.80;99.90;;;;;;4994078;28;20673;-66
2021/03/20 03:50:54;;;;;;;8.43;4.70;;;0.90;99.90;;;;;;4999858;28;20585;-65
2021/03/20 03:53:29;;;;;;;5.20;4.60;;;0.90;99.90;;;;;;4998216;28;21039;-66
2021/03/20 03:56:25;;;;;;;5.40;4.90;;;0.90;99.90;;;;;;4996445;28;20659;-66
2021/03/20 03:59:29;;;;;;;;;;;;;;;;;;;;;
2021/03/20 04:02:24;;;;;;;6.40;4.93;;;0.90;99.90;;;;;;4974522;28;20605;-64
2021/03/20 04:05:10;;;;;;;4.67;4.00;;;0.90;99.90;;;;;;4979406;28;20591;-65
2021/03/20 04:07:54;;;;;;;5.53;4.60;;;0.90;99.90;;;;;;4978353;28;20723;-65
2021/03/20 04:10:49;;;;;;;5.30;4.17;;;1.00;99.90;;;;;;4980228;28;20622;-65
2021/03/20 04:13:54;;;;;;;5.00;3.80;;;1.00;99.90;;;;;;4982910;28;20784;-65
2021/03/20 04:16:24;;;;;;;8.33;4.20;;;1.00;99.90;;;;;;4973669;28;21688;-66
2021/03/20 04:19:07;;;;;;;4.60;3.77;;;1.00;99.90;;;;;;4982011;28;20730;-65
2021/03/20 04:21:49;;;;;;;3.90;3.60;;;1.00;99.90;;;;;;4979863;28;20709;-65
2021/03/20 04:24:27;;;;;;;5.00;4.50;;;1.00;99.90;;;;;;4987461;28;20624;-65
2021/03/20 04:27:17;;;;;;;4.20;3.43;;;1.00;99.90;;;;;;4987834;28;20760;-64
2021/03/20 04:30:19;;;;;;;3.87;3.37;;;1.00;99.90;;;;;;4983060;28;20585;-65
2021/03/20 04:33:11;;;;;;;4.20;3.80;;;1.00;99.90;;;;;;4963359;28;20671;-65
2021/03/20 04:35:57;;;;;;;6.50;3.70;;;1.10;99.90;;;;;;4996659;28;20644;-65
2021/03/20 04:38:23;;;;;;;5.23;4.00;;;1.10;99.90;;;;;;4982064;28;20671;-65
2021/03/20 04:40:54;;;;;;;4.43;3.07;;;1.00;99.90;;;;;;4978282;28;20674;-65
2021/03/20 04:43:32;;;;;;;4.17;3.70;;;1.00;99.90;;;;;;4977685;28;20666;-65
2021/03/20 04:46:29;;;;;;;4.00;3.47;;;1.00;99.90;;;;;;4982053;28;20675;-65
2021/03/20 04:49:24;;;;;;;5.57;2.90;;;1.00;99.90;;;;;;4974982;28;20688;-65
2021/03/20 04:52:14;;;;;;;4.00;3.30;;;1.00;99.90;;;;;;4982651;28;20813;-65
2021/03/20 04:54:43;;;;;;;4.80;3.70;;;1.10;99.90;;;;;;4983826;28;20670;-65
2021/03/20 04:57:38;;;;;;;4.73;3.10;;;1.00;99.90;;;;;;4988248;28;20724;-65
2021/03/20 05:00:53;;;;;;;3.20;2.73;;;1.00;99.90;;;;;;4981212;28;20620;-65
2021/03/20 05:03:39;;;;;;;2.90;2.67;;;1.10;99.90;;;;;;4947340;28;20652;-65
2021/03/20 05:06:14;;;;;;;5.07;2.93;;;1.00;99.90;;;;;;4986117;28;21183;-65
2021/03/20 05:08:46;;;;;;;3.70;2.97;;;1.10;99.90;;;;;;4986096;28;21207;-66
2021/03/20 05:11:31;;;;;;;3.13;2.80;;;1.10;99.90;;;;;;4988736;28;20617;-65
2021/03/20 05:14:04;;;;;;;3.33;2.40;;;1.10;99.90;;;;;;4982663;28;20680;-65
2021/03/20 05:16:45;;;;;;;5.27;2.67;;;1.10;99.90;;;;;;4983874;28;20703;-65
2021/03/20 05:19:15;;;;;;;4.97;2.83;;;1.10;99.90;;;;;;4979731;28;20644;-65
2021/03/20 05:21:55;;;;;;;;;;;;;;;;;;;;;
2021/03/20 05:24:24;;;;;;;2.27;2.00;;;1.10;99.90;;;;;;4981350;28;21396;-65
2021/03/20 05:27:01;;;;;;;2.53;2.33;;;1.20;99.90;;;;;;4981462;28;20955;-65
2021/03/20 05:29:30;;;;;;;2.87;2.33;;;1.20;99.90;;;;;;4982901;28;20641;-65
2021/03/20 05:32:00;;;;;;;3.13;1.90;;;1.20;99.90;;;;;;4979798;28;20636;-65
2021/03/20 05:34:42;;;;;;;2.97;2.20;;;1.20;99.90;;;;;;4985129;28;20608;-65
2021/03/20 05:37:16;;;;;;;3.03;1.90;;;1.30;99.90;;;;;;4990986;28;20621;-65
2021/03/20 05:39:51;;;;;;;2.43;1.60;;;1.20;99.90;;;;;;4993306;23;20797;-70
2021/03/20 05:42:50;;;;;;;;;;;;;;;;;;;;;
2021/03/20 05:45:52;;;;;;;4.10;1.60;;;1.20;99.90;;;;;;4977177;28;20647;-70
2021/03/20 05:48:27;;;;;;;4.20;2.10;;;1.30;99.90;;;;;;4988599;28;20749;-70
2021/03/20 05:51:21;;;;;;;1.87;1.77;;;1.30;99.90;;;;;;4976226;28;20687;-70
2021/03/20 05:54:14;;;;;;;2.80;1.80;;;1.30;99.90;;;;;;4992172;28;20699;-70
2021/03/20 05:57:27;;;;;;;;;;;;;;;;;;;;;
2021/03/20 06:00:22;;;;;;;1.60;1.50;;;1.40;99.90;;;;;;4976078;28;20663;-70
2021/03/20 06:03:18;;;;;;;2.60;1.83;;;1.40;99.90;;;;;;4962946;28;20648;-70
2021/03/20 06:06:25;;;;;;;2.03;1.30;;;1.40;99.90;;;;;;4994902;28;20690;-70
2021/03/20 06:09:22;;;;;;;3.20;2.47;;;1.40;99.90;;;;;;4986947;28;20709;-70
2021/03/20 06:12:24;;;;;;;3.10;1.67;;;1.50;99.90;;;;;;4977662;28;20637;-68
2021/03/20 06:15:14;;;;;;;1.97;1.43;;;1.50;99.90;;;;;;4994510;28;20682;-69
2021/03/20 06:18:13;;;;;;;2.67;1.60;;;1.50;99.90;;;;;;5002109;28;21246;-70
2021/03/20 06:20:52;;;;;;;1.53;1.43;;;1.60;99.90;;;;;;5001550;28;21353;-68
2021/03/20 06:23:50;;;;;;;2.97;1.47;;;1.60;99.90;;;;;;5007167;28;20639;-69
2021/03/20 06:26:30;;;;;;;6.93;2.00;;;1.60;99.90;;;;;;5001344;28;20678;-70
2021/03/20 06:29:23;;;;;;;1.80;1.53;;;1.60;99.90;;;;;;5001583;28;20731;-68
2021/03/20 06:32:01;;;;;;;1.70;1.43;;;1.70;99.90;;;;;;5017441;28;20609;-70
2021/03/20 06:34:35;;;;;;;1.63;1.53;;;1.70;99.90;;;;;;4988272;28;20656;-70
2021/03/20 06:37:16;;;;;;;2.93;1.90;;;1.80;99.90;;;;;;5008363;28;20680;-70
2021/03/20 06:40:14;;;;;;;1.80;1.70;;;1.80;99.90;;;;;;4997588;28;20675;-70
2021/03/20 06:42:39;;;;;;;2.97;1.60;;;1.80;99.90;;;;;;4994740;28;20659;-70
2021/03/20 06:45:29;;;;;;;3.80;2.13;;;1.70;99.90;;;;;;4987714;28;20996;-70
2021/03/20 06:48:05;;;;;;;2.67;1.90;;;1.80;99.90;;;;;;4998502;28;20244;-70
2021/03/20 06:50:45;;;;;;;4.13;1.57;;;1.80;99.90;;;;;;5009966;28;20745;-70
2021/03/20 06:53:16;;;;;;;1.70;1.60;;;1.80;99.90;;;;;;5010623;28;20727;-70
2021/03/20 06:55:50;;;;;;;2.13;1.60;;;1.90;99.90;;;;;;5007780;28;20700;-70
2021/03/20 06:58:26;;;;;;;2.20;1.83;;;1.90;99.90;;;;;;4998825;28;21202;-70
2021/03/20 07:00:52;;;;;;;3.70;1.73;;;1.90;99.90;;;;;;5004258;28;20766;-70
2021/03/20 07:03:49;;;;;;;1.83;1.60;;;2.10;99.90;;;;;;4989871;28;20691;-69
2021/03/20 07:06:36;;;;;;;3.73;1.57;;;2.00;99.90;;;;;;4978656;28;20679;-68
2021/03/20 07:09:07;;;;;;;3.03;1.87;;;2.00;99.90;;;;;;4998174;28;20782;-69
2021/03/20 07:12:01;;;;;;;2.93;2.07;;;2.00;99.90;;;;;;4992696;28;20608;-69
2021/03/20 07:14:38;;;;;;;2.87;1.70;;;2.00;99.90;;;;;;4961113;28;20644;-69
2021/03/20 07:17:09;;;;;;;3.97;2.30;;;2.10;99.90;;;;;;4993492;28;20608;-70
2021/03/20 07:19:34;;;;;;;2.93;1.60;;;2.20;99.90;;;;;;4993030;28;20644;-69
2021/03/20 07:22:00;;;;;;;2.37;1.70;;;2.20;99.90;;;;;;4992133;28;21174;-69
2021/03/20 07:24:34;;;;;;;3.10;1.90;;;2.20;99.90;;;;;;4991281;28;20698;-69
2021/03/20 07:27:23;;;;;;;2.73;1.80;;;2.20;99.90;;;;;;4991512;28;20184;-69
2021/03/20 07:29:59;;;;;;;1.90;1.70;;;2.30;99.90;;;;;;4993226;28;20648;-69
2021/03/20 07:32:24;;;;;;;2.07;1.83;;;2.40;99.90;;;;;;4987980;28;21436;-69
2021/03/20 07:34:51;;;;;;;2.60;1.60;;;2.30;99.90;;;;;;4986736;28;20652;-69
2021/03/20 07:37:31;;;;;;;2.20;1.33;;;2.40;99.90;;;;;;5002884;28;20287;-69
2021/03/20 07:40:00;;;;;;;3.27;1.80;;;2.40;99.90;;;;;;4999010;28;20659;-69
2021/03/20 07:42:28;;;;;;;2.77;1.90;;;2.50;99.90;;;;;;4999983;28;21221;-69
2021/03/20 07:45:29;;;;;;;1.97;1.70;;;2.40;99.90;;;;;;5001837;28;20620;-69
2021/03/20 07:47:55;;;;;;;4.20;1.60;;;2.50;99.90;;;;;;4990983;28;20683;-69
2021/03/20 07:50:29;;;;;;;2.43;1.90;;;2.50;99.90;;;;;;5002258;28;20620;-69
2021/03/20 07:53:17;;;;;;;2.97;1.93;;;2.50;99.90;;;;;;5005042;28;20300;-69
2021/03/20 07:55:52;;;;;;;3.20;2.20;;;2.60;99.90;;;;;;5000875;28;20736;-69
2021/03/20 07:58:31;;;;;;;2.97;1.70;;;2.60;99.90;;;;;;5000132;28;20639;-69
2021/03/20 08:01:04;;;;;;;1.67;1.40;;;2.60;99.90;;;;;;5003118;28;21122;-69
2021/03/20 08:03:32;;;;;;;2.93;1.80;;;2.60;99.90;;;;;;5001095;28;20648;-69
2021/03/20 08:06:22;;;;;;;2.03;1.83;;;2.70;99.90;;;;;;4981856;28;20638;-69
2021/03/20 08:08:48;;;;;;;2.60;1.50;;;2.80;99.90;;;;;;5005255;28;20667;-68
2021/03/20 08:11:38;;;;;;;2.30;1.63;;;2.80;99.90;;;;;;4985914;28;20624;-71
2021/03/20 08:14:15;;;;;;;4.07;1.90;;;2.90;99.90;;;;;;4980358;28;20656;-69
2021/03/20 08:16:42;;;;;;;4.90;2.10;;;3.00;99.90;;;;;;4994132;28;21642;-70
2021/03/20 08:19:13;;;;;;;3.43;1.67;;;3.00;99.90;;;;;;5002040;28;20635;-69
2021/03/20 08:22:11;;;;;;;2.27;1.33;;;3.20;99.90;;;;;;4990674;28;20688;-69
2021/03/20 08:24:46;;;;;;;2.40;1.50;;;3.10;99.90;;;;;;5015469;28;20657;-69
2021/03/20 08:27:14;;;;;;;2.30;1.60;;;3.30;99.90;;;;;;5006751;28;20642;-69
2021/03/20 08:29:45;;;;;;;3.03;1.67;;;3.30;99.90;;;;;;5003655;28;20740;-69
2021/03/20 08:32:19;;;;;;;1.73;1.50;;;3.20;99.90;;;;;;5012820;28;20704;-70
2021/03/20 08:35:19;;;;;;;5.27;1.53;;;3.30;99.90;;;;;;5006532;28;20714;-69
2021/03/20 08:37:56;;;;;;;3.70;1.60;;;3.30;99.90;;;;;;4991961;28;20711;-70
2021/03/20 08:40:42;;;;;;;1.70;1.50;;;3.40;99.90;;;;;;4995652;28;20609;-70
2021/03/20 08:43:41;;;;;;;2.70;1.67;;;3.50;99.90;;;;;;5000631;28;21302;-69
2021/03/20 08:46:10;;;;;;;2.13;1.70;;;3.60;99.90;;;;;;5003108;28;20636;-69
2021/03/20 08:49:02;;;;;;;1.80;1.60;;;3.60;99.90;;;;;;5001584;28;20655;-69
2021/03/20 08:51:34;;;;;;;4.07;1.87;;;3.50;99.90;;;;;;5002505;28;20684;-69
2021/03/20 08:54:17;;;;;;;1.50;1.40;;;3.60;99.90;;;;;;4998137;28;20652;-69
2021/03/20 08:57:10;;;;;;;1.87;1.50;;;3.60;99.90;;;;;;5009985;28;21388;-69
2021/03/20 08:59:52;;;;;;;1.80;1.30;;;3.60;99.90;;;;;;5002002;28;20644;-69
2021/03/20 09:02:26;;;;;;;4.00;1.70;;;3.70;99.90;;;;;;4975862;28;20643;-69
2021/03/20 09:04:58;;;;;;;2.33;1.63;;;3.60;99.90;;;;;;5006272;28;20674;-69
2021/03/20 09:07:34;;;;;;;2.30;1.67;;;3.60;99.90;;;;;;5000365;28;20661;-69
2021/03/20 09:10:01;;;;;;;2.30;1.53;;;3.70;99.90;;;;;;4991889;28;20645;-70
2021/03/20 09:12:46;;;;;;;2.90;1.60;;;3.60;99.90;;;;;;4993421;28;20827;-69
2021/03/20 09:15:24;;;;;;;3.60;1.87;;;3.80;99.90;;;;;;4976436;28;20667;-70
2021/03/20 09:17:51;;;;;;;1.47;1.33;;;3.80;99.90;;;;;;4982362;28;20674;-70
2021/03/20 09:20:33;;;;;;;2.27;1.43;;;3.90;99.90;;;;;;5000496;28;20612;-69
2021/03/20 09:23:00;;;;;;;2.40;1.33;;;3.90;99.90;;;;;;4994159;28;20956;-70
2021/03/20 09:25:45;;;;;;;2.10;1.60;;;4.00;99.90;;;;;;5011265;28;20616;-71
2021/03/20 09:28:27;;;;;;;2.00;1.40;;;4.10;99.90;;;;;;5017619;28;20701;-70
2021/03/20 09:30:56;;;;;;;1.50;1.40;;;4.10;99.90;;;;;;5004239;28;20636;-69
2021/03/20 09:33:27;;;;;;;3.60;1.73;;;4.10;99.90;;;;;;4991374;28;20744;-71
2021/03/20 09:35:53;;;;;;;2.00;1.70;;;4.10;99.90;;;;;;4976899;28;21054;-69
2021/03/20 09:38:37;;;;;;;1.50;1.40;;;4.10;99.90;;;;;;4977397;28;20652;-69
2021/03/20 09:41:15;;;;;;;2.80;2.00;;;4.20;99.90;;;;;;4980999;28;20264;-69
2021/03/20 09:43:43;;;;;;;1.90;1.53;;;4.20;99.90;;;;;;5000090;28;20640;-69
2021/03/20 09:46:43;;;;;;;2.00;1.90;;;4.30;99.90;;;;;;5000666;28;21372;-71
2021/03/20 09:49:15;;;;;;;2.37;1.70;;;4.30;99.90;;;;;;4985292;28;20644;-69
2021/03/20 09:54:28;;;;;;;1.90;1.80;;;4.30;99.90;;;;;;4999130;28;20635;-69
2021/03/20 09:59:42;;;;;;;2.20;1.93;;;4.30;99.90;;;;;;5002333;28;20640;-69
2021/03/20 10:02:11;;;;;;;3.53;1.60;;;4.40;99.90;;;;;;4985903;28;20601;-69
2021/03/20 10:04:58;;;;;;;2.10;1.80;;;4.40;99.90;;;;;;4983284;28;20190;-69
2021/03/20 10:07:24;;;;;;;2.20;1.70;;;4.40;99.90;;;;;;4997150;28;20604;-69
2021/03/20 10:09:56;;;;;;;1.93;1.80;;;4.40;99.90;;;;;;5007239;28;20632;-70
2021/03/20 10:12:43;;;;;;;3.40;2.20;;;4.50;99.90;;;;;;4996223;28;20640;-69
2021/03/20 10:15:18;;;;;;;3.43;2.20;;;4.60;99.90;;;;;;5002276;28;20998;-71
2021/03/20 10:18:11;;;;;;;3.33;1.77;;;4.80;99.90;;;;;;5005624;28;20695;-71
2021/03/20 10:20:45;;;;;;;2.30;2.10;;;4.80;99.90;;;;;;5004731;28;20626;-69
2021/03/20 10:23:14;;;;;;;2.77;2.23;;;4.90;99.90;;;;;;4986621;28;20982;-70
2021/03/20 10:25:50;;;;;;;4.80;2.20;;;5.00;99.90;;;;;;5009905;28;20624;-70
2021/03/20 10:28:16;;;;;;;3.30;2.70;;;5.10;99.90;;;;;;5008154;28;20641;-69
2021/03/20 10:30:56;;;;;;;2.57;2.33;;;5.20;99.90;;;;;;5009159;28;20608;-70
2021/03/20 10:33:29;;;;;;;3.23;2.93;;;5.20;99.90;;;;;;5004988;28;20644;-69
2021/03/20 10:36:10;;;;;;;4.60;3.00;;;5.20;99.90;;;;;;4991424;28;20736;-70
2021/03/20 10:38:37;;;;;;;4.30;3.07;;;5.20;99.90;;;;;;4999542;28;20672;-70
2021/03/20 10:41:29;;;;;;;3.70;3.40;;;5.20;99.90;;;;;;4990698;28;20631;-70
2021/03/20 10:44:07;;;;;;;3.80;3.10;;;5.20;99.90;;;;;;4999299;28;20633;-70
2021/03/20 10:46:35;;;;;;;3.20;2.80;;;5.40;99.90;;;;;;5000098;28;20635;-70
2021/03/20 10:49:12;;;;;;;4.50;3.23;;;5.50;99.90;;;;;;5002319;28;21370;-70
2021/03/20 10:51:40;;;;;;;3.40;3.00;;;5.60;99.90;;;;;;4993550;28;21447;-70
2021/03/20 10:54:42;;;;;;;5.77;3.03;;;5.80;99.90;;;;;;4996529;28;20729;-71
2021/03/20 10:57:14;;;;;;;4.53;2.70;;;5.90;99.90;;;;;;4993184;28;20632;-70
2021/03/20 10:59:43;;;;;;;6.20;2.77;;;6.00;99.90;;;;;;5002674;28;20737;-70
2021/03/20 11:02:23;;;;;;;3.50;2.97;;;6.20;99.90;;;;;;4981961;28;21268;-71
2021/03/20 11:04:50;;;;;;;3.27;2.97;;;6.20;99.90;;;;;;4997468;28;20627;-70
2021/03/20 11:07:23;;;;;;;4.23;2.80;;;6.30;99.90;;;;;;4990827;28;20756;-70
2021/03/20 11:09:49;;;;;;;8.60;3.30;;;6.30;99.90;;;;;;4976817;28;20751;-71
2021/03/20 11:12:28;;;;;;;4.50;3.10;;;6.40;99.90;;;;;;4997775;28;20707;-72
2021/03/20 11:14:59;;;;;;;4.10;3.20;;;6.50;99.90;;;;;;4992446;28;20790;-70
2021/03/20 11:17:29;;;;;;;4.67;3.53;;;6.70;99.90;;;;;;4993759;28;20723;-70
2021/03/20 11:20:02;;;;;;;3.73;3.40;;;6.70;99.90;;;;;;4992479;28;20632;-71
2021/03/20 11:22:37;;;;;;;5.10;3.30;;;6.70;99.90;;;;;;5000124;28;21036;-70
2021/03/20 11:25:20;;;;;;;3.90;2.97;;;6.70;99.90;;;;;;4978815;28;20640;-70
2021/03/20 11:28:22;;;;;;;4.80;3.40;;;6.80;99.90;;;;;;4991761;28;20730;-70
2021/03/20 11:30:51;;;;;;;2.93;2.70;;;6.90;99.90;;;;;;4994048;28;20636;-70
2021/03/20 11:33:22;;;;;;;3.63;3.10;;;7.10;99.90;;;;;;4984446;28;20636;-70
2021/03/20 11:35:51;;;;;;;7.10;3.70;;;7.10;99.90;;;;;;5002154;28;21014;-70
2021/03/20 11:38:19;;;;;;;4.40;3.20;;;7.10;99.90;;;;;;4989784;28;20744;-70
2021/03/20 11:40:48;;;;;;;3.67;2.90;;;7.20;99.90;;;;;;4992656;23;20695;-64
2021/03/20 11:43:27;;;;;;;5.70;3.90;;;7.20;99.90;;;;;;4995432;28;21307;-64
2021/03/20 11:46:05;;;;;;;4.93;3.20;;;7.20;99.90;;;;;;4988234;28;20830;-65
2021/03/20 11:48:36;;;;;;;3.97;3.50;;;7.20;99.90;;;;;;4971626;28;21206;-65
2021/03/20 11:51:04;;;;;;;4.27;3.83;;;7.20;99.90;;;;;;4991944;28;20644;-65
2021/03/20 11:53:43;;;;;;;5.13;3.77;;;7.20;99.90;;;;;;4990730;28;20645;-65
2021/03/20 11:56:32;;;;;;;3.80;3.40;;;7.40;99.90;;;;;;4973798;28;20644;-65
2021/03/20 11:59:04;;;;;;;4.90;4.10;;;7.40;99.90;;;;;;4990789;28;20633;-66
2021/03/20 12:01:46;;;;;;;3.73;3.43;;;7.30;99.90;;;;;;4988917;28;21076;-66
2021/03/20 12:04:21;;;;;;;3.80;3.47;;;7.40;99.90;;;;;;4987152;28;21314;-65
2021/03/20 12:06:47;;;;;;;5.23;4.13;;;7.40;99.90;;;;;;4986291;28;20602;-66
2021/03/20 12:09:22;;;;;;;4.50;3.70;;;7.30;99.90;;;;;;4993317;28;21132;-65
2021/03/20 12:11:48;;;;;;;5.03;4.53;;;7.30;99.90;;;;;;4968670;28;20616;-66
2021/03/20 12:14:30;;;;;;;4.63;4.10;;;7.30;99.90;;;;;;4966405;28;22027;-65
2021/03/20 12:17:10;;;;;;;5.90;4.10;;;7.30;99.90;;;;;;4970635;28;20214;-66
2021/03/20 12:19:51;;;;;;;4.50;4.10;;;7.40;99.90;;;;;;4967407;28;20759;-66
2021/03/20 12:22:33;;;;;;;7.50;4.60;;;7.30;99.90;;;;;;4966722;28;20645;-66
2021/03/20 12:25:34;;;;;;;5.13;4.30;;;7.20;99.90;;;;;;4964085;28;20617;-65
2021/03/20 12:28:24;;;;;;;4.53;4.10;;;7.20;99.90;;;;;;4965538;28;20676;-65
2021/03/20 12:31:17;;;;;;;4.20;3.90;;;7.10;99.90;;;;;;4966487;28;21211;-66
2021/03/20 12:34:00;;;;;;;4.70;4.20;;;7.10;99.90;;;;;;4969359;28;20653;-66
2021/03/20 12:36:40;;;;;;;6.20;4.90;;;7.20;99.90;;;;;;4994106;28;20680;-64
2021/03/20 12:39:15;;;;;;;4.50;3.90;;;7.10;99.90;;;;;;4991999;28;20630;-65
2021/03/20 12:41:44;;;;;;;5.70;4.90;;;7.10;99.90;;;;;;5001886;28;20639;-66
2021/03/20 12:44:10;;;;;;;5.37;4.87;;;7.10;99.90;;;;;;4996205;28;20788;-65
2021/03/20 12:46:40;;;;;;;5.90;5.30;;;7.10;99.90;;;;;;4996093;28;21222;-65
2021/03/20 12:49:06;;;;;;;5.27;4.77;;;7.10;99.90;;;;;;5004330;28;20201;-65
2021/03/20 12:51:32;;;;;;;5.63;5.10;;;7.10;99.90;;;;;;4970993;28;20651;-65
2021/03/20 12:54:00;;;;;;;5.80;5.20;;;7.10;99.90;;;;;;4986366;28;20673;-65
2021/03/20 12:56:26;;;;;;;6.50;5.90;;;7.10;99.90;;;;;;4975654;28;20676;-65
2021/03/20 12:58:52;;;;;;;5.73;4.90;;;7.00;99.90;;;;;;4973488;28;20615;-65
2021/03/20 13:01:17;;;;;;;6.00;4.90;;;7.00;99.90;;;;;;4993290;28;20217;-65
2021/03/20 13:03:43;;;;;;;6.83;4.47;;;7.00;99.90;;;;;;4985232;28;20593;-65
2021/03/20 13:06:09;;;;;;;5.30;4.90;;;7.00;99.90;;;;;;4992404;28;20190;-66
2021/03/20 13:08:38;;;;;;;6.70;5.77;;;7.00;99.90;;;;;;4992190;28;20201;-66
2021/03/20 13:11:08;;;;;;;5.50;5.00;;;7.00;99.90;;;;;;4974842;28;20221;-66
2021/03/20 13:13:33;;;;;;;8.17;6.03;;;7.10;99.90;;;;;;4990997;28;20655;-66
2021/03/20 13:15:59;;;;;;;6.20;5.60;;;7.00;99.90;;;;;;4991834;28;20853;-66
2021/03/20 13:18:25;;;;;;;5.63;5.13;;;7.00;99.90;;;;;;4993968;28;20198;-67
2021/03/20 13:20:50;;;;;;;11.73;10.30;;;7.00;99.90;;;;;;4976650;28;20667;-64
2021/03/20 13:23:20;;;;;;;7.77;6.97;;;7.00;99.90;;;;;;5004033;28;20322;-64
2021/03/20 13:25:46;;;;;;;7.47;6.73;;;7.00;99.90;;;;;;4988376;28;20196;-65
2021/03/20 13:28:14;;;;;;;10.17;8.07;;;7.00;99.90;;;;;;4983101;28;20619;-64
2021/03/20 13:30:43;;;;;;;6.00;5.40;;;7.00;99.90;;;;;;5006448;28;20644;-64
2021/03/20 13:33:09;;;;;;;6.13;5.53;;;7.00;99.90;;;;;;4981912;28;20648;-65
2021/03/20 13:35:37;;;;;;;5.67;5.10;;;7.10;99.90;;;;;;4994936;28;20655;-66
2021/03/20 13:38:04;;;;;;;20.70;15.40;;;7.10;99.90;;;;;;4992621;28;20623;-65
2021/03/20 13:40:30;;;;;;;7.97;7.17;;;7.00;99.90;;;;;;4996609;28;20680;-66
2021/03/20 13:42:56;;;;;;;6.70;6.10;;;7.00;99.90;;;;;;4986334;28;20648;-66
2021/03/20 13:45:25;;;;;;;7.13;6.40;;;7.00;99.90;;;;;;4986829;28;20198;-65
2021/03/20 13:47:51;;;;;;;7.37;6.60;;;7.00;99.90;;;;;;4988150;28;21154;-66
2021/03/20 13:50:18;;;;;;;7.17;6.43;;;6.90;99.90;;;;;;4997968;28;20659;-66
2021/03/20 13:52:44;;;;;;;6.00;5.40;;;6.90;99.90;;;;;;4989317;28;20258;-65
2021/03/20 13:55:10;;;;;;;7.73;6.93;;;7.00;99.90;;;;;;4996070;28;20648;-66
2021/03/20 13:57:36;;;;;;;6.90;6.23;;;6.90;99.90;;;;;;4998670;28;20649;-65
2021/03/20 14:00:05;;;;;;;7.40;5.80;;;7.00;99.90;;;;;;4997328;28;20655;-66
2021/03/20 14:02:31;;;;;;;6.40;5.80;;;7.00;99.90;;;;;;4999150;28;20222;-65